sensor_id;sensor_type;location;lat;lon;timestamp;pressure;altitude;pressure_sealevel;temperature;humidity
70254;BME280;57649;42.968;1.608;2023-08-21T00:02:20;97728.97;;;25.09;92.18
70254;BME280;57649;42.968;1.608;2023-08-21T00:04:46;97730.41;;;24.94;92.82
70254;BME280;57649;42.968;1.608;2023-08-21T00:07:11;97738.31;;;24.91;92.63
70254;BME280;57649;42.968;1.608;2023-08-21T00:09:37;97737.16;;;24.87;92.82
70254;BME280;57649;42.968;1.608;2023-08-21T00:12:03;97732.13;;;24.78;93.44
70254;BME280;57649;42.968;1.608;2023-08-21T00:14:28;97735.19;;;24.82;93.21
70254;BME280;57649;42.968;1.608;2023-08-21T00:16:54;97732.38;;;24.77;93.84
70254;BME280;57649;42.968;1.608;2023-08-21T00:19:19;97727.41;;;24.74;94.75
70254;BME280;57649;42.968;1.608;2023-08-21T00:21:45;97728.22;;;24.74;94.67
70254;BME280;57649;42.968;1.608;2023-08-21T00:24:10;97720.44;;;24.66;94.89
70254;BME280;57649;42.968;1.608;2023-08-21T00:26:36;97721.63;;;24.53;95.69
70254;BME280;57649;42.968;1.608;2023-08-21T00:29:02;97723.50;;;24.36;96.47
70254;BME280;57649;42.968;1.608;2023-08-21T00:31:27;97717.34;;;24.29;97.09
70254;BME280;57649;42.968;1.608;2023-08-21T00:33:52;97718.03;;;24.36;97.03
70254;BME280;57649;42.968;1.608;2023-08-21T00:36:18;97722.44;;;24.37;97.16
70254;BME280;57649;42.968;1.608;2023-08-21T00:38:45;97721.19;;;24.45;96.81
70254;BME280;57649;42.968;1.608;2023-08-21T00:41:10;97720.59;;;24.43;96.26
70254;BME280;57649;42.968;1.608;2023-08-21T00:43:36;97723.59;;;24.41;96.75
70254;BME280;57649;42.968;1.608;2023-08-21T00:46:01;97726.06;;;24.43;96.59
70254;BME280;57649;42.968;1.608;2023-08-21T00:48:27;97727.56;;;24.33;97.13
70254;BME280;57649;42.968;1.608;2023-08-21T00:50:52;97716.22;;;24.25;97.62
70254;BME280;57649;42.968;1.608;2023-08-21T00:53:18;97725.84;;;24.27;97.64
70254;BME280;57649;42.968;1.608;2023-08-21T00:55:43;97730.22;;;24.28;97.78
70254;BME280;57649;42.968;1.608;2023-08-21T00:58:10;97723.44;;;24.31;97.67
70254;BME280;57649;42.968;1.608;2023-08-21T01:00:39;97725.31;;;24.30;97.39
70254;BME280;57649;42.968;1.608;2023-08-21T01:03:05;97722.53;;;24.25;97.58
70254;BME280;57649;42.968;1.608;2023-08-21T01:05:31;97731.03;;;24.29;97.25
70254;BME280;57649;42.968;1.608;2023-08-21T01:08:11;97728.97;;;24.19;97.58
70254;BME280;57649;42.968;1.608;2023-08-21T01:10:43;97721.25;;;24.16;97.76
70254;BME280;57649;42.968;1.608;2023-08-21T01:15:51;97721.25;;;24.16;97.82
70254;BME280;57649;42.968;1.608;2023-08-21T01:18:18;97709.00;;;24.18;97.31
70254;BME280;57649;42.968;1.608;2023-08-21T01:20:44;97717.59;;;24.10;97.64
70254;BME280;57649;42.968;1.608;2023-08-21T01:23:09;97719.03;;;24.13;97.56
70254;BME280;57649;42.968;1.608;2023-08-21T01:25:35;97710.00;;;24.12;97.55
70254;BME280;57649;42.968;1.608;2023-08-21T01:28:00;97711.81;;;24.07;97.43
70254;BME280;57649;42.968;1.608;2023-08-21T01:30:28;97704.69;;;24.06;97.57
70254;BME280;57649;42.968;1.608;2023-08-21T01:33:08;97710.97;;;24.06;97.60
70254;BME280;57649;42.968;1.608;2023-08-21T01:35:36;97711.22;;;24.05;97.64
70254;BME280;57649;42.968;1.608;2023-08-21T01:38:03;97719.34;;;23.99;98.08
70254;BME280;57649;42.968;1.608;2023-08-21T01:40:29;97718.75;;;23.97;98.11
70254;BME280;57649;42.968;1.608;2023-08-21T01:42:54;97721.00;;;24.00;97.66
70254;BME280;57649;42.968;1.608;2023-08-21T01:45:21;97716.44;;;24.06;97.41
70254;BME280;57649;42.968;1.608;2023-08-21T01:47:46;97723.84;;;24.06;97.59
70254;BME280;57649;42.968;1.608;2023-08-21T01:50:12;97724.06;;;24.04;97.64
70254;BME280;57649;42.968;1.608;2023-08-21T01:52:37;97727.38;;;24.06;97.24
70254;BME280;57649;42.968;1.608;2023-08-21T01:55:03;97722.50;;;24.08;97.08
70254;BME280;57649;42.968;1.608;2023-08-21T01:57:29;97732.53;;;24.02;97.00
70254;BME280;57649;42.968;1.608;2023-08-21T01:59:54;97741.47;;;23.98;97.37
70254;BME280;57649;42.968;1.608;2023-08-21T02:02:20;97737.41;;;24.00;97.33
70254;BME280;57649;42.968;1.608;2023-08-21T02:04:45;97745.63;;;24.00;97.49
70254;BME280;57649;42.968;1.608;2023-08-21T02:07:11;97738.16;;;23.96;97.48
70254;BME280;57649;42.968;1.608;2023-08-21T02:09:36;97740.06;;;23.95;97.89
70254;BME280;57649;42.968;1.608;2023-08-21T02:12:01;97732.84;;;23.89;97.49
70254;BME280;57649;42.968;1.608;2023-08-21T02:14:28;97749.50;;;23.88;97.51
70254;BME280;57649;42.968;1.608;2023-08-21T02:16:53;97734.59;;;23.67;98.42
70254;BME280;57649;42.968;1.608;2023-08-21T02:19:18;97737.81;;;23.63;98.84
70254;BME280;57649;42.968;1.608;2023-08-21T02:21:44;97738.88;;;23.62;99.15
70254;BME280;57649;42.968;1.608;2023-08-21T02:24:09;97735.56;;;23.60;99.67
70254;BME280;57649;42.968;1.608;2023-08-21T02:26:35;97741.69;;;23.68;99.12
70254;BME280;57649;42.968;1.608;2023-08-21T02:29:00;97734.50;;;23.61;99.12
70254;BME280;57649;42.968;1.608;2023-08-21T02:31:25;97741.25;;;23.59;99.14
70254;BME280;57649;42.968;1.608;2023-08-21T02:33:51;97747.94;;;23.51;99.77
70254;BME280;57649;42.968;1.608;2023-08-21T02:36:16;97728.97;;;23.44;99.93
70254;BME280;57649;42.968;1.608;2023-08-21T02:38:42;97739.16;;;23.49;100.00
70254;BME280;57649;42.968;1.608;2023-08-21T02:41:07;97741.91;;;23.49;100.00
70254;BME280;57649;42.968;1.608;2023-08-21T02:43:34;97748.06;;;23.56;100.00
70254;BME280;57649;42.968;1.608;2023-08-21T02:45:59;97746.88;;;23.52;100.00
70254;BME280;57649;42.968;1.608;2023-08-21T02:48:25;97747.81;;;23.58;100.00
70254;BME280;57649;42.968;1.608;2023-08-21T02:50:50;97740.72;;;23.45;100.00
70254;BME280;57649;42.968;1.608;2023-08-21T02:53:15;97745.84;;;23.41;100.00
70254;BME280;57649;42.968;1.608;2023-08-21T02:55:41;97733.50;;;23.39;100.00
70254;BME280;57649;42.968;1.608;2023-08-21T02:58:06;97729.25;;;23.31;100.00
70254;BME280;57649;42.968;1.608;2023-08-21T03:00:31;97740.63;;;23.40;100.00
70254;BME280;57649;42.968;1.608;2023-08-21T03:02:57;97747.16;;;23.39;100.00
70254;BME280;57649;42.968;1.608;2023-08-21T03:05:22;97735.16;;;23.40;100.00
70254;BME280;57649;42.968;1.608;2023-08-21T03:07:48;97725.69;;;23.31;100.00
70254;BME280;57649;42.968;1.608;2023-08-21T03:10:13;97727.00;;;23.28;100.00
70254;BME280;57649;42.968;1.608;2023-08-21T03:12:39;97728.31;;;23.25;100.00
70254;BME280;57649;42.968;1.608;2023-08-21T03:15:04;97729.69;;;23.40;100.00
70254;BME280;57649;42.968;1.608;2023-08-21T03:17:30;97731.03;;;23.37;100.00
70254;BME280;57649;42.968;1.608;2023-08-21T03:19:55;97732.47;;;23.28;100.00
70254;BME280;57649;42.968;1.608;2023-08-21T03:22:21;97728.19;;;23.20;100.00
70254;BME280;57649;42.968;1.608;2023-08-21T03:24:46;97740.09;;;23.14;100.00
70254;BME280;57649;42.968;1.608;2023-08-21T03:27:15;97737.25;;;23.21;100.00
70254;BME280;57649;42.968;1.608;2023-08-21T03:29:40;97735.91;;;23.23;100.00
70254;BME280;57649;42.968;1.608;2023-08-21T03:32:06;97742.34;;;23.17;100.00
70254;BME280;57649;42.968;1.608;2023-08-21T03:34:31;97742.81;;;23.14;100.00
70254;BME280;57649;42.968;1.608;2023-08-21T03:36:56;97747.47;;;23.14;100.00
70254;BME280;57649;42.968;1.608;2023-08-21T03:39:22;97733.47;;;23.10;100.00
70254;BME280;57649;42.968;1.608;2023-08-21T03:41:47;97743.88;;;23.13;100.00
70254;BME280;57649;42.968;1.608;2023-08-21T03:44:13;97740.09;;;23.14;100.00
70254;BME280;57649;42.968;1.608;2023-08-21T03:46:38;97748.63;;;23.18;100.00
70254;BME280;57649;42.968;1.608;2023-08-21T03:49:04;97750.56;;;23.17;100.00
70254;BME280;57649;42.968;1.608;2023-08-21T03:51:29;97745.69;;;23.19;100.00
70254;BME280;57649;42.968;1.608;2023-08-21T03:53:55;97741.16;;;23.13;100.00
70254;BME280;57649;42.968;1.608;2023-08-21T03:56:20;97741.75;;;23.03;100.00
70254;BME280;57649;42.968;1.608;2023-08-21T03:58:47;97747.00;;;23.05;100.00
70254;BME280;57649;42.968;1.608;2023-08-21T04:01:13;97741.88;;;22.97;100.00
70254;BME280;57649;42.968;1.608;2023-08-21T04:03:38;97743.53;;;22.98;100.00
70254;BME280;57649;42.968;1.608;2023-08-21T04:06:04;97747.31;;;22.97;100.00
70254;BME280;57649;42.968;1.608;2023-08-21T04:08:29;97744.59;;;22.97;100.00
70254;BME280;57649;42.968;1.608;2023-08-21T04:10:54;97743.06;;;23.01;100.00
70254;BME280;57649;42.968;1.608;2023-08-21T04:13:24;97742.59;;;22.92;100.00
70254;BME280;57649;42.968;1.608;2023-08-21T04:15:49;97741.78;;;22.92;100.00
70254;BME280;57649;42.968;1.608;2023-08-21T04:18:16;97741.50;;;22.93;100.00
70254;BME280;57649;42.968;1.608;2023-08-21T04:20:41;97743.41;;;22.93;100.00
70254;BME280;57649;42.968;1.608;2023-08-21T04:23:06;97740.09;;;22.91;100.00
70254;BME280;57649;42.968;1.608;2023-08-21T04:25:32;97746.16;;;22.93;100.00
70254;BME280;57649;42.968;1.608;2023-08-21T04:27:57;97754.00;;;22.89;100.00
70254;BME280;57649;42.968;1.608;2023-08-21T04:30:23;97753.78;;;22.79;100.00
70254;BME280;57649;42.968;1.608;2023-08-21T04:32:48;97757.94;;;22.70;100.00
70254;BME280;57649;42.968;1.608;2023-08-21T04:35:14;97756.72;;;22.65;100.00
70254;BME280;57649;42.968;1.608;2023-08-21T04:37:43;97762.19;;;22.65;100.00
70254;BME280;57649;42.968;1.608;2023-08-21T04:40:10;97757.66;;;22.71;100.00
70254;BME280;57649;42.968;1.608;2023-08-21T04:42:36;97764.69;;;22.79;100.00
70254;BME280;57649;42.968;1.608;2023-08-21T04:45:01;97761.03;;;22.73;100.00
70254;BME280;57649;42.968;1.608;2023-08-21T04:47:28;97773.47;;;22.81;100.00
70254;BME280;57649;42.968;1.608;2023-08-21T04:49:54;97773.81;;;22.73;100.00
70254;BME280;57649;42.968;1.608;2023-08-21T04:52:21;97779.84;;;22.75;100.00
70254;BME280;57649;42.968;1.608;2023-08-21T04:54:50;97781.16;;;22.84;100.00
70254;BME280;57649;42.968;1.608;2023-08-21T04:57:16;97792.22;;;22.77;100.00
70254;BME280;57649;42.968;1.608;2023-08-21T04:59:43;97790.78;;;22.63;100.00
70254;BME280;57649;42.968;1.608;2023-08-21T05:02:08;97785.56;;;22.61;100.00
70254;BME280;57649;42.968;1.608;2023-08-21T05:04:36;97797.06;;;22.63;100.00
70254;BME280;57649;42.968;1.608;2023-08-21T05:07:02;97801.34;;;22.47;100.00
70254;BME280;57649;42.968;1.608;2023-08-21T05:09:28;97800.25;;;22.37;100.00
70254;BME280;57649;42.968;1.608;2023-08-21T05:11:54;97808.16;;;22.38;100.00
70254;BME280;57649;42.968;1.608;2023-08-21T05:14:21;97792.16;;;22.42;100.00
70254;BME280;57649;42.968;1.608;2023-08-21T05:16:49;97801.34;;;22.47;100.00
70254;BME280;57649;42.968;1.608;2023-08-21T05:19:14;97796.81;;;22.41;100.00
70254;BME280;57649;42.968;1.608;2023-08-21T05:21:39;97800.25;;;22.48;100.00
70254;BME280;57649;42.968;1.608;2023-08-21T05:24:05;97808.78;;;22.40;100.00
70254;BME280;57649;42.968;1.608;2023-08-21T05:26:30;97811.63;;;22.45;100.00
70254;BME280;57649;42.968;1.608;2023-08-21T05:28:56;97806.44;;;22.44;100.00
70254;BME280;57649;42.968;1.608;2023-08-21T05:31:21;97812.84;;;22.49;100.00
70254;BME280;57649;42.968;1.608;2023-08-21T05:33:47;97814.81;;;22.30;100.00
70254;BME280;57649;42.968;1.608;2023-08-21T05:36:12;97820.16;;;22.37;100.00
70254;BME280;57649;42.968;1.608;2023-08-21T05:38:38;97817.81;;;22.41;100.00
70254;BME280;57649;42.968;1.608;2023-08-21T05:41:03;97819.25;;;22.25;100.00
70254;BME280;57649;42.968;1.608;2023-08-21T05:43:28;97819.00;;;22.15;100.00
70254;BME280;57649;42.968;1.608;2023-08-21T05:45:54;97822.88;;;22.07;100.00
70254;BME280;57649;42.968;1.608;2023-08-21T05:48:19;97819.91;;;22.08;100.00
70254;BME280;57649;42.968;1.608;2023-08-21T05:50:50;97811.56;;;21.91;100.00
70254;BME280;57649;42.968;1.608;2023-08-21T05:53:16;97820.13;;;21.95;100.00
70254;BME280;57649;42.968;1.608;2023-08-21T05:55:41;97819.66;;;21.98;100.00
70254;BME280;57649;42.968;1.608;2023-08-21T05:58:06;97823.59;;;22.02;100.00
70254;BME280;57649;42.968;1.608;2023-08-21T06:00:33;97819.19;;;22.01;100.00
70254;BME280;57649;42.968;1.608;2023-08-21T06:02:58;97823.13;;;22.05;100.00
70254;BME280;57649;42.968;1.608;2023-08-21T06:05:24;97823.38;;;22.04;100.00
70254;BME280;57649;42.968;1.608;2023-08-21T06:07:49;97815.59;;;21.89;100.00
70254;BME280;57649;42.968;1.608;2023-08-21T06:10:15;97834.03;;;22.05;100.00
70254;BME280;57649;42.968;1.608;2023-08-21T06:12:41;97831.91;;;22.07;100.00
70254;BME280;57649;42.968;1.608;2023-08-21T06:15:07;97833.13;;;22.23;100.00
70254;BME280;57649;42.968;1.608;2023-08-21T06:17:36;97840.78;;;22.33;100.00
70254;BME280;57649;42.968;1.608;2023-08-21T06:20:02;97834.41;;;22.39;100.00
70254;BME280;57649;42.968;1.608;2023-08-21T06:22:30;97836.81;;;22.47;100.00
70254;BME280;57649;42.968;1.608;2023-08-21T06:24:56;97828.00;;;22.45;100.00
70254;BME280;57649;42.968;1.608;2023-08-21T06:27:21;97834.66;;;22.61;100.00
70254;BME280;57649;42.968;1.608;2023-08-21T06:29:47;97832.16;;;22.48;100.00
70254;BME280;57649;42.968;1.608;2023-08-21T06:32:12;97830.84;;;22.51;100.00
70254;BME280;57649;42.968;1.608;2023-08-21T06:34:37;97832.75;;;22.62;100.00
70254;BME280;57649;42.968;1.608;2023-08-21T06:37:03;97838.25;;;22.74;100.00
70254;BME280;57649;42.968;1.608;2023-08-21T06:39:28;97837.66;;;22.72;100.00
70254;BME280;57649;42.968;1.608;2023-08-21T06:41:54;97835.06;;;22.77;100.00
70254;BME280;57649;42.968;1.608;2023-08-21T06:44:20;97839.09;;;22.86;100.00
70254;BME280;57649;42.968;1.608;2023-08-21T06:46:45;97827.22;;;22.92;100.00
70254;BME280;57649;42.968;1.608;2023-08-21T06:49:11;97834.81;;;23.02;100.00
70254;BME280;57649;42.968;1.608;2023-08-21T06:51:36;97837.47;;;23.09;100.00
70254;BME280;57649;42.968;1.608;2023-08-21T06:54:02;97829.84;;;23.11;99.57
70254;BME280;57649;42.968;1.608;2023-08-21T06:56:27;97829.16;;;23.15;98.72
70254;BME280;57649;42.968;1.608;2023-08-21T06:58:52;97834.00;;;23.13;99.06
70254;BME280;57649;42.968;1.608;2023-08-21T07:01:20;97832.22;;;23.19;99.42
70254;BME280;57649;42.968;1.608;2023-08-21T07:03:46;97831.97;;;23.20;98.83
70254;BME280;57649;42.968;1.608;2023-08-21T07:06:11;97826.03;;;23.35;98.16
70254;BME280;57649;42.968;1.608;2023-08-21T07:08:36;97823.16;;;23.42;97.49
70254;BME280;57649;42.968;1.608;2023-08-21T07:11:03;97824.94;;;23.48;97.86
70254;BME280;57649;42.968;1.608;2023-08-21T07:13:31;97823.63;;;23.51;97.03
70254;BME280;57649;42.968;1.608;2023-08-21T07:15:57;97822.19;;;23.48;97.10
70254;BME280;57649;42.968;1.608;2023-08-21T07:18:22;97812.81;;;23.44;96.96
70254;BME280;57649;42.968;1.608;2023-08-21T07:20:47;97820.16;;;23.55;96.33
70254;BME280;57649;42.968;1.608;2023-08-21T07:23:13;97817.88;;;23.64;95.44
70254;BME280;57649;42.968;1.608;2023-08-21T07:25:38;97814.63;;;23.79;94.76
70254;BME280;57649;42.968;1.608;2023-08-21T07:28:04;97807.59;;;23.95;93.74
70254;BME280;57649;42.968;1.608;2023-08-21T07:30:29;97809.09;;;24.02;93.18
70254;BME280;57649;42.968;1.608;2023-08-21T07:32:55;97811.59;;;24.04;92.52
70254;BME280;57649;42.968;1.608;2023-08-21T07:35:20;97805.47;;;24.14;92.28
70254;BME280;57649;42.968;1.608;2023-08-21T07:37:46;97806.47;;;24.08;92.09
70254;BME280;57649;42.968;1.608;2023-08-21T07:40:11;97808.28;;;24.19;91.83
70254;BME280;57649;42.968;1.608;2023-08-21T07:42:37;97797.78;;;24.28;91.20
70254;BME280;57649;42.968;1.608;2023-08-21T07:45:03;97805.66;;;24.41;90.27
70254;BME280;57649;42.968;1.608;2023-08-21T07:47:28;97797.03;;;24.32;90.78
70254;BME280;57649;42.968;1.608;2023-08-21T07:49:56;97797.03;;;24.32;92.23
70254;BME280;57649;42.968;1.608;2023-08-21T07:52:21;97801.97;;;24.47;91.51
70254;BME280;57649;42.968;1.608;2023-08-21T07:54:51;97792.66;;;24.48;90.64
70254;BME280;57649;42.968;1.608;2023-08-21T07:57:16;97794.56;;;24.48;90.49
70254;BME280;57649;42.968;1.608;2023-08-21T07:59:43;97793.59;;;24.54;90.17
70254;BME280;57649;42.968;1.608;2023-08-21T08:02:08;97781.16;;;24.63;89.17
70254;BME280;57649;42.968;1.608;2023-08-21T08:04:33;97782.13;;;24.91;88.84
70254;BME280;57649;42.968;1.608;2023-08-21T08:06:59;97782.31;;;25.23;86.21
70254;BME280;57649;42.968;1.608;2023-08-21T08:09:24;97787.00;;;25.67;84.55
70254;BME280;57649;42.968;1.608;2023-08-21T08:11:50;97779.84;;;26.15;83.44
70254;BME280;57649;42.968;1.608;2023-08-21T08:14:15;97775.41;;;26.74;78.82
70254;BME280;57649;42.968;1.608;2023-08-21T08:16:41;97770.63;;;27.39;75.84
70254;BME280;57649;42.968;1.608;2023-08-21T08:19:07;97771.31;;;27.87;72.41
70254;BME280;57649;42.968;1.608;2023-08-21T08:21:33;97779.66;;;28.18;70.26
70254;BME280;57649;42.968;1.608;2023-08-21T08:23:58;97763.47;;;28.63;69.36
70254;BME280;57649;42.968;1.608;2023-08-21T08:26:23;97762.59;;;28.93;68.01
70254;BME280;57649;42.968;1.608;2023-08-21T08:28:49;97763.09;;;29.31;67.07
70254;BME280;57649;42.968;1.608;2023-08-21T08:31:18;97758.53;;;29.61;65.95
70254;BME280;57649;42.968;1.608;2023-08-21T08:33:44;97761.75;;;29.88;63.46
70254;BME280;57649;42.968;1.608;2023-08-21T08:36:09;97760.81;;;30.03;63.39
70254;BME280;57649;42.968;1.608;2023-08-21T08:38:35;97763.56;;;30.03;63.88
70254;BME280;57649;42.968;1.608;2023-08-21T08:41:02;97767.72;;;30.45;63.68
70254;BME280;57649;42.968;1.608;2023-08-21T08:43:28;97760.00;;;30.42;63.58
70254;BME280;57649;42.968;1.608;2023-08-21T08:45:58;97763.19;;;30.60;63.41
70254;BME280;57649;42.968;1.608;2023-08-21T08:48:25;97759.97;;;30.77;63.24
70254;BME280;57649;42.968;1.608;2023-08-21T08:50:52;97756.72;;;29.96;65.08
70254;BME280;57649;42.968;1.608;2023-08-21T08:53:20;97756.94;;;30.44;63.59
70254;BME280;57649;42.968;1.608;2023-08-21T08:55:46;97756.09;;;30.48;63.23
70254;BME280;57649;42.968;1.608;2023-08-21T08:58:12;97754.97;;;30.49;63.60
70254;BME280;57649;42.968;1.608;2023-08-21T09:00:37;97756.16;;;30.73;62.25
70254;BME280;57649;42.968;1.608;2023-08-21T09:03:03;97754.16;;;31.07;61.27
70254;BME280;57649;42.968;1.608;2023-08-21T09:05:29;97740.63;;;31.06;60.77
70254;BME280;57649;42.968;1.608;2023-08-21T09:08:10;97748.41;;;31.28;59.96
70254;BME280;57649;42.968;1.608;2023-08-21T09:10:41;97739.53;;;31.31;59.71
70254;BME280;57649;42.968;1.608;2023-08-21T09:13:18;97746.25;;;31.49;59.68
70254;BME280;57649;42.968;1.608;2023-08-21T09:15:48;97748.75;;;31.45;59.25
70254;BME280;57649;42.968;1.608;2023-08-21T09:18:18;97741.41;;;31.79;58.56
70254;BME280;57649;42.968;1.608;2023-08-21T09:20:44;97729.53;;;31.97;58.63
70254;BME280;57649;42.968;1.608;2023-08-21T09:23:16;97740.66;;;31.92;58.33
70254;BME280;57649;42.968;1.608;2023-08-21T09:25:44;97734.97;;;31.64;59.24
70254;BME280;57649;42.968;1.608;2023-08-21T09:28:19;97737.69;;;31.89;58.99
70254;BME280;57649;42.968;1.608;2023-08-21T09:30:54;97737.09;;;31.92;58.78
70254;BME280;57649;42.968;1.608;2023-08-21T09:33:21;97729.16;;;32.23;58.46
70254;BME280;57649;42.968;1.608;2023-08-21T09:35:48;97727.69;;;32.64;58.13
70254;BME280;57649;42.968;1.608;2023-08-21T09:38:14;97736.22;;;32.48;57.92
70254;BME280;57649;42.968;1.608;2023-08-21T09:40:40;97736.38;;;32.57;58.21
70254;BME280;57649;42.968;1.608;2023-08-21T09:43:08;97731.72;;;32.52;58.34
70254;BME280;57649;42.968;1.608;2023-08-21T09:45:35;97727.06;;;32.34;58.75
70254;BME280;57649;42.968;1.608;2023-08-21T09:48:01;97726.75;;;32.16;59.50
70254;BME280;57649;42.968;1.608;2023-08-21T09:50:29;97723.56;;;32.61;58.22
70254;BME280;57649;42.968;1.608;2023-08-21T09:52:56;97730.59;;;32.53;59.18
70254;BME280;57649;42.968;1.608;2023-08-21T09:55:24;97710.88;;;32.88;58.71
70254;BME280;57649;42.968;1.608;2023-08-21T09:57:57;97722.09;;;33.10;57.88
70254;BME280;57649;42.968;1.608;2023-08-21T10:00:26;97724.66;;;33.07;58.04
70254;BME280;57649;42.968;1.608;2023-08-21T10:02:52;97721.84;;;33.12;57.04
70254;BME280;57649;42.968;1.608;2023-08-21T10:05:19;97720.25;;;33.06;58.17
70254;BME280;57649;42.968;1.608;2023-08-21T10:07:47;97714.53;;;33.16;57.83
70254;BME280;57649;42.968;1.608;2023-08-21T10:10:13;97713.69;;;33.29;57.27
70254;BME280;57649;42.968;1.608;2023-08-21T10:12:39;97716.03;;;33.50;56.90
70254;BME280;57649;42.968;1.608;2023-08-21T10:15:06;97710.47;;;33.64;56.86
70254;BME280;57649;42.968;1.608;2023-08-21T10:17:32;97703.50;;;33.38;56.86
70254;BME280;57649;42.968;1.608;2023-08-21T10:20:08;97705.84;;;33.59;56.07
70254;BME280;57649;42.968;1.608;2023-08-21T10:22:45;97701.13;;;33.73;54.83
70254;BME280;57649;42.968;1.608;2023-08-21T10:25:22;97698.50;;;33.91;54.25
70254;BME280;57649;42.968;1.608;2023-08-21T10:27:53;97701.22;;;34.05;54.53
70254;BME280;57649;42.968;1.608;2023-08-21T10:30:26;97699.00;;;34.16;54.47
70254;BME280;57649;42.968;1.608;2023-08-21T10:32:53;97689.81;;;34.29;54.68
70254;BME280;57649;42.968;1.608;2023-08-21T10:35:32;97695.72;;;34.13;54.43
70254;BME280;57649;42.968;1.608;2023-08-21T10:38:16;97687.88;;;34.29;54.46
70254;BME280;57649;42.968;1.608;2023-08-21T10:41:07;97684.59;;;34.27;54.55
70254;BME280;57649;42.968;1.608;2023-08-21T10:43:38;97686.59;;;34.13;54.48
70254;BME280;57649;42.968;1.608;2023-08-21T10:46:05;97687.03;;;34.06;54.64
70254;BME280;57649;42.968;1.608;2023-08-21T10:48:30;97686.69;;;34.22;54.39
70254;BME280;57649;42.968;1.608;2023-08-21T10:50:56;97679.53;;;34.29;53.53
70254;BME280;57649;42.968;1.608;2023-08-21T10:53:23;97685.56;;;34.54;53.40
70254;BME280;57649;42.968;1.608;2023-08-21T10:55:55;97678.69;;;34.51;53.18
70254;BME280;57649;42.968;1.608;2023-08-21T10:58:21;97667.41;;;34.25;54.30
70254;BME280;57649;42.968;1.608;2023-08-21T11:00:46;97671.16;;;34.21;53.71
70254;BME280;57649;42.968;1.608;2023-08-21T11:03:14;97666.34;;;34.66;52.82
70254;BME280;57649;42.968;1.608;2023-08-21T11:05:40;97663.41;;;35.03;52.64
70254;BME280;57649;42.968;1.608;2023-08-21T11:08:05;97657.69;;;34.99;52.12
70254;BME280;57649;42.968;1.608;2023-08-21T11:10:31;97653.34;;;34.76;52.04
70254;BME280;57649;42.968;1.608;2023-08-21T11:12:57;97659.44;;;34.55;53.42
70254;BME280;57649;42.968;1.608;2023-08-21T11:15:26;97651.91;;;34.56;52.94
70254;BME280;57649;42.968;1.608;2023-08-21T11:20:18;97647.13;;;34.47;52.99
70254;BME280;57649;42.968;1.608;2023-08-21T11:22:44;97645.75;;;34.99;51.38
70254;BME280;57649;42.968;1.608;2023-08-21T11:25:09;97637.81;;;34.83;52.34
70254;BME280;57649;42.968;1.608;2023-08-21T11:27:35;97634.94;;;35.06;51.67
70254;BME280;57649;42.968;1.608;2023-08-21T11:30:00;97634.50;;;34.73;52.78
70254;BME280;57649;42.968;1.608;2023-08-21T11:32:26;97628.22;;;34.98;52.01
70254;BME280;57649;42.968;1.608;2023-08-21T11:34:54;97625.19;;;35.17;51.03
70254;BME280;57649;42.968;1.608;2023-08-21T11:37:26;97627.19;;;35.34;51.12
70254;BME280;57649;42.968;1.608;2023-08-21T11:39:53;97623.09;;;35.40;50.02
70254;BME280;57649;42.968;1.608;2023-08-21T11:42:20;97617.88;;;35.65;50.40
70254;BME280;57649;42.968;1.608;2023-08-21T11:44:50;97620.53;;;35.04;51.37
70254;BME280;57649;42.968;1.608;2023-08-21T11:47:21;97611.03;;;34.96;52.16
70254;BME280;57649;42.968;1.608;2023-08-21T11:49:47;97608.47;;;35.08;51.78
70254;BME280;57649;42.968;1.608;2023-08-21T11:52:18;97617.88;;;35.30;51.28
70254;BME280;57649;42.968;1.608;2023-08-21T11:54:48;97606.25;;;35.45;49.43
70254;BME280;57649;42.968;1.608;2023-08-21T11:57:14;97607.72;;;36.04;49.05
70254;BME280;57649;42.968;1.608;2023-08-21T11:59:40;97603.63;;;36.19;48.88
70254;BME280;57649;42.968;1.608;2023-08-21T12:02:18;97602.69;;;35.80;48.03
70254;BME280;57649;42.968;1.608;2023-08-21T12:04:43;97597.06;;;35.62;48.79
70254;BME280;57649;42.968;1.608;2023-08-21T12:07:09;97599.06;;;35.88;48.30
70254;BME280;57649;42.968;1.608;2023-08-21T12:09:35;97596.72;;;36.08;47.77
70254;BME280;57649;42.968;1.608;2023-08-21T12:12:00;97594.00;;;35.81;47.72
70254;BME280;57649;42.968;1.608;2023-08-21T12:14:27;97591.38;;;35.76;48.10
70254;BME280;57649;42.968;1.608;2023-08-21T12:16:53;97580.66;;;36.13;47.57
70254;BME280;57649;42.968;1.608;2023-08-21T12:19:20;97578.38;;;36.07;47.82
70254;BME280;57649;42.968;1.608;2023-08-21T12:21:46;97581.56;;;35.70;48.06
70254;BME280;57649;42.968;1.608;2023-08-21T12:24:12;97577.63;;;35.71;47.86
70254;BME280;57649;42.968;1.608;2023-08-21T12:26:37;97577.28;;;35.81;48.38
70254;BME280;57649;42.968;1.608;2023-08-21T12:29:03;97567.53;;;36.14;47.21
70254;BME280;57649;42.968;1.608;2023-08-21T12:31:28;97569.75;;;35.73;47.24
70254;BME280;57649;42.968;1.608;2023-08-21T12:33:54;97565.78;;;35.57;48.71
70254;BME280;57649;42.968;1.608;2023-08-21T12:36:20;97569.75;;;35.82;46.73
70254;BME280;57649;42.968;1.608;2023-08-21T12:38:45;97564.81;;;35.96;46.95
70254;BME280;57649;42.968;1.608;2023-08-21T12:41:10;97567.28;;;35.72;47.41
70254;BME280;57649;42.968;1.608;2023-08-21T12:43:36;97563.50;;;35.67;48.00
70254;BME280;57649;42.968;1.608;2023-08-21T12:46:01;97564.00;;;35.87;46.90
70254;BME280;57649;42.968;1.608;2023-08-21T12:48:27;97554.31;;;35.84;47.51
70254;BME280;57649;42.968;1.608;2023-08-21T12:50:52;97557.03;;;36.28;47.07
70254;BME280;57649;42.968;1.608;2023-08-21T12:53:18;97561.78;;;36.36;46.07
70254;BME280;57649;42.968;1.608;2023-08-21T12:55:43;97552.31;;;36.11;46.46
70254;BME280;57649;42.968;1.608;2023-08-21T12:58:09;97546.38;;;36.30;46.35
70254;BME280;57649;42.968;1.608;2023-08-21T13:00:34;97544.59;;;36.08;45.92